Time;durP1;ratioP1;P1;durP2;ratioP2;P2;SDS_P1;SDS_P2;PMS_P1;PMS_P2;Temp;Humidity;BMP_temperature;BMP_pressure;BME280_temperature;BME280_humidity;BME280_pressure;Samples;Min_cycle;Max_cycle;Signal;HPM_P1;HPM_P2
2021/09/15 00:01:11;;;;;;;141.85;47.20;;;;;;;13.38;71.23;100615.55;1657491;86;21219;-62
2021/09/15 00:03:44;;;;;;;151.57;56.73;;;;;;;13.35;71.39;100615.83;1658898;86;21330;-62
2021/09/15 00:06:18;;;;;;;137.10;54.80;;;;;;;13.34;71.54;100605.47;1659112;86;21286;-63
2021/09/15 00:08:54;;;;;;;138.70;54.95;;;;;;;13.31;71.55;100607.06;1657457;86;21180;-62
2021/09/15 00:11:27;;;;;;;;;;;;;;;13.27;71.53;100614.91;1660125;86;21164;-63
2021/09/15 00:14:06;;;;;;;115.67;46.08;;;;;;;13.22;71.56;100619.77;1657726;86;20156;-62
2021/09/15 00:16:43;;;;;;;94.87;37.42;;;;;;;13.16;71.62;100620.36;1659001;86;21718;-62
2021/09/15 00:19:17;;;;;;;100.15;38.40;;;;;;;13.12;71.67;100618.96;1658081;86;21295;-61
2021/09/15 00:21:55;;;;;;;86.00;35.68;;;;;;;13.08;71.61;100621.06;1659109;86;21576;-62
2021/09/15 00:24:30;;;;;;;71.72;30.30;;;;;;;13.02;71.57;100624.70;1657774;86;21210;-63
2021/09/15 00:27:07;;;;;;;68.85;30.10;;;;;;;12.95;71.55;100624.92;1659551;86;21299;-62
2021/09/15 00:29:41;;;;;;;54.53;24.87;;;;;;;12.88;71.59;100631.72;1659270;86;21294;-62
2021/09/15 00:32:15;;;;;;;55.25;24.00;;;;;;;12.82;71.69;100627.88;1658304;86;21175;-62
2021/09/15 00:34:51;;;;;;;63.17;24.85;;;;;;;12.77;71.88;100633.56;1659249;86;21313;-62
2021/09/15 00:37:25;;;;;;;49.60;21.02;;;;;;;12.76;71.99;100637.63;1658175;86;21152;-62
2021/09/15 00:39:59;;;;;;;54.00;21.87;;;;;;;12.75;72.16;100633.36;1659598;86;21199;-62
2021/09/15 00:42:35;;;;;;;58.20;25.45;;;;;;;12.73;72.32;100628.22;1660047;86;21563;-62
2021/09/15 00:45:11;;;;;;;65.25;26.33;;;;;;;12.71;72.30;100630.16;1659453;86;21239;-62
2021/09/15 00:47:47;;;;;;;64.47;27.67;;;;;;;12.69;72.36;100630.80;1659496;86;21191;-62
2021/09/15 00:50:25;;;;;;;54.67;26.62;;;;;;;12.68;72.38;100634.38;1658280;86;21192;-63
2021/09/15 00:53:02;;;;;;;59.10;24.87;;;;;;;12.67;72.36;100627.96;1659840;86;21671;-62
2021/09/15 00:55:41;;;;;;;52.33;24.05;;;;;;;12.66;72.22;100630.23;1658955;86;21322;-62
2021/09/15 00:58:18;;;;;;;74.47;29.45;;;;;;;12.61;72.13;100631.16;1638684;86;21191;-62
2021/09/15 01:00:57;;;;;;;71.75;30.30;;;;;;;12.55;72.22;100633.86;1658863;86;21351;-62
2021/09/15 01:03:31;;;;;;;77.58;30.10;;;;;;;12.54;72.43;100637.91;1659525;86;21171;-62
2021/09/15 01:06:07;;;;;;;80.15;32.55;;;;;;;12.51;72.53;100639.05;1615719;86;21243;-62
2021/09/15 01:08:46;;;;;;;96.55;34.73;;;;;;;12.49;72.68;100637.02;1659509;86;21228;-62
2021/09/15 01:11:25;;;;;;;86.17;34.05;;;;;;;12.48;72.84;100636.69;1658863;86;21191;-62
2021/09/15 01:14:04;;;;;;;100.85;33.38;;;;;;;12.49;73.03;100639.64;1654988;86;21152;-62
2021/09/15 01:16:53;;;;;;;74.60;28.50;;;;;;;12.51;73.14;100640.84;1628464;86;21203;-60
2021/09/15 01:19:45;;;;;;;77.45;28.35;;;;;;;12.51;73.16;100652.18;1658196;86;21187;-60
2021/09/15 01:22:39;;;;;;;68.07;25.00;;;;;;;12.52;73.24;100659.07;1659534;86;21179;-61
2021/09/15 01:25:17;;;;;;;49.88;21.77;;;;;;;12.53;73.26;100652.86;1620549;86;21841;-61
2021/09/15 01:28:08;;;;;;;113.10;44.13;;;;;;;12.53;73.23;100646.30;1657849;86;21196;-60
2021/09/15 01:30:44;;;;;;;165.90;60.23;;;;;;;12.53;73.16;100651.55;1657442;86;21201;-60
2021/09/15 01:33:24;;;;;;;188.25;71.55;;;;;;;12.53;73.11;100641.05;1659457;86;21695;-61
2021/09/15 01:36:01;;;;;;;237.10;92.00;;;;;;;12.54;73.03;100643.16;1658706;86;21313;-61
2021/09/15 01:38:37;;;;;;;205.35;76.55;;;;;;;12.54;72.97;100651.04;1657683;86;21215;-61
2021/09/15 01:41:14;;;;;;;182.07;69.75;;;;;;;12.53;72.87;100655.97;1658809;86;21416;-60
2021/09/15 01:43:55;;;;;;;;;;;;;;;12.52;72.88;100658.23;1661685;86;21699;-61
2021/09/15 01:46:29;;;;;;;163.05;64.45;;;;;;;12.51;72.90;100656.59;1658568;86;20240;-61
2021/09/15 01:49:05;;;;;;;123.05;49.03;;;;;;;12.47;73.00;100658.66;1657253;86;21196;-62
2021/09/15 01:51:45;;;;;;;71.92;32.17;;;;;;;12.48;72.99;100660.80;1658677;86;21865;-62
2021/09/15 01:54:24;;;;;;;45.00;19.45;;;;;;;12.49;73.02;100659.34;1659138;86;21798;-61
2021/09/15 01:57:00;;;;;;;37.20;14.38;;;;;;;12.51;72.99;100655.28;1657715;86;21183;-61
2021/09/15 01:59:37;;;;;;;39.15;16.00;;;;;;;12.54;72.97;100664.17;1654481;86;21183;-62
2021/09/15 02:02:30;;;;;;;;;;;;;;;12.58;72.91;100663.78;1656700;86;21243;-62
2021/09/15 02:05:09;;;;;;;152.68;59.65;;;;;;;12.61;72.73;100667.42;1657714;86;20614;-61
2021/09/15 02:07:47;;;;;;;393.40;125.40;;;;;;;12.61;72.61;100670.05;1657254;86;21290;-62
2021/09/15 02:10:37;;;;;;;389.72;127.60;;;;;;;12.66;72.48;100677.52;1588696;86;21833;-62
2021/09/15 02:13:12;;;;;;;300.35;94.83;;;;;;;12.68;72.17;100678.23;1658844;86;21175;-61
2021/09/15 02:15:46;;;;;;;270.85;90.72;;;;;;;12.67;71.92;100677.87;1659073;86;21286;-62
2021/09/15 02:18:20;;;;;;;102.20;39.78;;;;;;;12.66;71.76;100678.83;1658445;86;21171;-64
2021/09/15 02:21:12;;;;;;;93.25;34.45;;;;;;;12.64;71.58;100681.61;1657735;86;21182;-62
2021/09/15 02:24:00;;;;;;;63.15;23.85;;;;;;;12.58;71.50;100683.48;1616794;86;21758;-62
2021/09/15 02:26:54;;;;;;;50.05;19.23;;;;;;;12.53;71.49;100681.75;1658737;86;21313;-62
2021/09/15 02:29:29;;;;;;;26.12;12.23;;;;;;;12.48;71.51;100685.75;1657875;86;21205;-63
2021/09/15 02:32:10;;;;;;;19.70;9.25;;;;;;;12.44;71.57;100685.18;1657394;86;21283;-62
2021/09/15 02:34:58;;;;;;;16.80;7.37;;;;;;;12.42;71.60;100688.44;1657199;86;21262;-62
2021/09/15 02:37:47;;;;;;;15.45;7.90;;;;;;;12.39;71.62;100697.92;1658096;86;21227;-61
2021/09/15 02:43:18;;;;;;;13.78;7.67;;;;;;;12.39;71.63;100698.39;1844757;76;28458;-61
2021/09/15 02:46:10;;;;;;;20.20;8.03;;;;;;;12.43;71.39;100701.92;1817734;78;21140;-61
2021/09/15 02:48:59;;;;;;;68.07;33.33;;;;;;;12.42;71.28;100699.45;1756066;78;21265;-61
2021/09/15 02:51:37;;;;;;;259.27;120.17;;;;;;;12.39;71.25;100703.65;1793237;78;21291;-61
2021/09/15 02:54:11;;;;;;;232.67;107.78;;;;;;;12.36;71.08;100702.13;1785953;80;21291;-61
2021/09/15 02:56:50;;;;;;;258.82;128.50;;;;;;;12.36;70.96;100703.91;1785039;80;21192;-61
2021/09/15 02:59:26;;;;;;;415.45;207.80;;;;;;;12.35;70.76;100703.55;1785054;80;21157;-61
2021/09/15 03:02:13;;;;;;;297.05;148.07;;;;;;;12.34;70.50;100710.63;1756248;80;21157;-61
2021/09/15 03:04:53;;;;;;;175.82;94.22;;;;;;;12.33;70.20;100708.95;1784254;80;21145;-61
2021/09/15 03:07:30;;;;;;;104.43;53.30;;;;;;;12.31;69.97;100714.83;1784388;80;21256;-61
2021/09/15 03:10:06;;;;;;;91.05;44.18;;;;;;;12.30;69.76;100717.09;1786152;80;21180;-61
2021/09/15 03:12:39;;;;;;;115.20;50.35;;;;;;;12.30;69.54;100721.03;1786375;80;21201;-61
2021/09/15 03:15:15;;;;;;;119.80;45.92;;;;;;;12.31;69.34;100721.39;1787200;80;21252;-61
2021/09/15 03:17:48;;;;;;;98.92;36.95;;;;;;;12.33;69.14;100722.08;1765363;80;21272;-61
2021/09/15 03:20:27;;;;;;;83.75;31.40;;;;;;;12.34;68.96;100724.23;1785866;79;21137;-62
2021/09/15 03:23:01;;;;;;;418.60;209.90;;;;;;;12.33;68.74;100728.64;1785595;79;21165;-61
2021/09/15 03:25:41;;;;;;;378.05;196.53;;;;;;;12.34;68.54;100736.88;1787148;80;21291;-62
2021/09/15 03:28:16;;;;;;;469.28;262.30;;;;;;;12.34;68.36;100734.73;1786033;80;21165;-62
2021/09/15 03:30:49;;;;;;;391.15;213.05;;;;;;;12.35;68.17;100735.06;1787324;80;21727;-62
2021/09/15 03:33:28;;;;;;;351.12;187.20;;;;;;;12.35;68.01;100739.83;1785136;80;21192;-63
2021/09/15 03:36:03;;;;;;;316.45;167.87;;;;;;;12.38;67.80;100747.45;1787664;80;21240;-63
2021/09/15 03:38:38;;;;;;;539.67;318.48;;;;;;;12.42;67.57;100747.52;1786101;80;21283;-63
2021/09/15 03:41:17;;;;;;;559.60;328.48;;;;;;;12.47;67.35;100749.73;1787648;80;21122;-62
2021/09/15 03:43:52;;;;;;;648.13;391.40;;;;;;;12.52;67.12;100747.53;1785881;80;21169;-62
2021/09/15 03:46:25;;;;;;;773.70;453.08;;;;;;;12.61;66.88;100751.98;1787593;80;21248;-62
2021/09/15 03:49:01;;;;;;;947.85;533.07;;;;;;;12.69;66.57;100758.68;1786504;80;21268;-62
2021/09/15 03:51:38;;;;;;;679.35;351.98;;;;;;;12.76;66.28;100760.62;1786451;79;21275;-61
2021/09/15 03:54:14;;;;;;;492.42;226.75;;;;;;;12.85;66.01;100765.05;1785507;80;21279;-61
2021/09/15 03:56:48;;;;;;;327.43;142.50;;;;;;;13.01;65.63;100767.13;1786948;80;21312;-60
2021/09/15 03:59:23;;;;;;;193.68;89.40;;;;;;;13.16;65.25;100764.95;1785345;80;21225;-59
2021/09/15 04:02:03;;;;;;;210.57;100.75;;;;;;;13.37;64.70;100780.87;1786928;80;21283;-59
2021/09/15 04:04:37;;;;;;;209.92;95.07;;;;;;;13.69;63.97;100775.73;1786680;80;21160;-60
2021/09/15 04:07:12;;;;;;;131.47;60.48;;;;;;;14.41;62.82;100778.02;1786881;80;21236;-62
2021/09/15 04:09:46;;;;;;;64.17;25.37;;;;;;;15.26;60.75;100785.42;1786581;80;21164;-64
2021/09/15 04:12:20;;;;;;;54.48;19.48;;;;;;;16.19;58.51;100793.44;1782119;79;22116;-64
2021/09/15 04:14:56;;;;;;;38.65;15.00;;;;;;;17.21;55.64;100792.67;1782531;80;21252;-62
2021/09/15 04:17:29;;;;;;;35.80;15.68;;;;;;;18.23;52.69;100792.30;1782723;80;21287;-61
2021/09/15 04:20:05;;;;;;;30.08;12.25;;;;;;;19.17;49.88;100793.41;1782441;79;21232;-62
2021/09/15 04:22:43;;;;;;;16.27;8.18;;;;;;;19.98;47.05;100800.12;1743944;81;21127;-63
2021/09/15 04:31:19;;;;;;;25.30;10.68;;;;;;;21.82;41.25;100801.03;1720110;83;21826;-60
2021/09/15 04:33:54;;;;;;;8.90;3.98;;;;;;;22.49;39.78;100805.19;1725764;83;21181;-64
2021/09/15 04:36:32;;;;;;;12.90;4.30;;;;;;;23.06;38.13;100805.23;1739794;81;21366;-63
2021/09/15 04:39:11;;;;;;;8.03;3.50;;;;;;;23.56;36.81;100801.99;1713118;82;21338;-62
2021/09/15 04:41:50;;;;;;;16.32;3.20;;;;;;;24.05;35.74;100808.98;1742385;81;21298;-61
2021/09/15 04:44:24;;;;;;;6.47;2.92;;;;;;;24.51;34.82;100808.84;1739452;82;21342;-64
2021/09/15 04:47:04;;;;;;;5.72;3.52;;;;;;;24.94;33.67;100805.55;1755681;81;21259;-60
2021/09/15 04:49:40;;;;;;;9.80;3.98;;;;;;;25.19;32.87;100804.56;1745577;82;21188;-61
2021/09/15 04:52:13;;;;;;;6.37;3.77;;;;;;;25.27;32.46;100803.44;1737788;81;21300;-61
2021/09/15 04:54:47;;;;;;;8.43;4.15;;;;;;;25.45;32.00;100812.92;1741404;81;21863;-65
2021/09/15 04:57:24;;;;;;;12.10;5.72;;;;;;;25.72;31.34;100815.65;1769203;81;21363;-67
2021/09/15 04:59:58;;;;;;;6.10;3.37;;;;;;;26.09;30.54;100820.02;1770949;81;21259;-62
2021/09/15 05:02:34;;;;;;;11.93;4.40;;;;;;;26.47;29.65;100829.72;1751529;80;21212;-65
2021/09/15 05:05:10;;;;;;;6.42;2.65;;;;;;;26.80;28.96;100817.24;1761251;79;21193;-64
2021/09/15 05:07:49;;;;;;;7.70;3.22;;;;;;;27.18;28.03;100823.05;1758089;81;21200;-60
2021/09/15 05:10:25;;;;;;;8.25;3.72;;;;;;;27.64;27.23;100829.04;1760123;79;21358;-67
2021/09/15 05:13:00;;;;;;;10.85;4.15;;;;;;;27.96;26.38;100827.64;1759587;79;21307;-65
2021/09/15 05:15:34;;;;;;;9.55;3.70;;;;;;;28.14;26.10;100830.73;1755584;81;21362;-64
2021/09/15 05:18:10;;;;;;;10.05;3.65;;;;;;;28.33;25.19;100830.86;1763214;79;22518;-65
2021/09/15 05:20:44;;;;;;;8.80;3.70;;;;;;;28.67;24.77;100832.14;1762648;81;21141;-69
2021/09/15 05:23:18;;;;;;;7.37;3.42;;;;;;;29.08;23.96;100838.27;1762541;79;21288;-68
2021/09/15 05:25:54;;;;;;;16.30;4.47;;;;;;;29.49;23.49;100836.57;1769042;79;21194;-67
2021/09/15 05:28:29;;;;;;;8.08;2.70;;;;;;;29.99;22.81;100838.70;1772430;79;21377;-66
2021/09/15 05:31:04;;;;;;;9.35;2.33;;;;;;;30.37;22.12;100843.27;1763138;79;21819;-65
2021/09/15 05:33:37;;;;;;;11.90;2.95;;;;;;;30.73;21.62;100845.84;1762200;79;21267;-64
2021/09/15 05:36:12;;;;;;;6.28;2.52;;;;;;;31.01;21.02;100839.39;1761519;79;21348;-62
2021/09/15 05:38:45;;;;;;;8.18;3.85;;;;;;;31.31;20.46;100826.94;1759448;79;21296;-64
2021/09/15 05:41:22;;;;;;;10.05;4.35;;;;;;;31.65;20.23;100836.97;1760997;79;21291;-67
2021/09/15 05:43:57;;;;;;;6.47;3.10;;;;;;;32.04;19.66;100836.69;1762643;79;21204;-68
2021/09/15 05:46:32;;;;;;;4.47;2.05;;;;;;;32.37;19.42;100836.30;1729661;81;22177;-68
2021/09/15 05:49:05;;;;;;;5.72;2.15;;;;;;;32.64;18.98;100840.21;1730625;81;21334;-64
2021/09/15 05:51:41;;;;;;;4.67;2.22;;;;;;;32.93;18.87;100838.66;1737216;81;21333;-67
2021/09/15 05:54:18;;;;;;;5.40;3.25;;;;;;;33.24;18.50;100830.31;1696976;83;21322;-67
2021/09/15 05:56:52;;;;;;;8.80;4.37;;;;;;;33.57;18.14;100826.23;1696801;83;21317;-67
2021/09/15 05:59:25;;;;;;;7.12;2.72;;;;;;;33.87;17.77;100829.41;1696001;83;21339;-68
2021/09/15 06:01:59;;;;;;;5.75;2.87;;;;;;;34.28;17.59;100835.02;1692758;83;21176;-64
2021/09/15 06:04:32;;;;;;;5.72;2.92;;;;;;;34.67;17.16;100828.32;1695700;83;21391;-71
2021/09/15 06:07:09;;;;;;;9.70;2.10;;;;;;;35.02;16.67;100835.41;1691863;83;21224;-64
2021/09/15 06:09:42;;;;;;;3.52;1.70;;;;;;;35.39;16.48;100839.78;1689681;83;21338;-66
2021/09/15 06:12:15;;;;;;;5.10;1.82;;;;;;;35.66;16.08;100833.27;1691603;83;21322;-63
2021/09/15 06:14:50;;;;;;;6.95;1.72;;;;;;;35.92;15.83;100835.74;1687255;83;21601;-64
2021/09/15 06:17:24;;;;;;;2.67;1.57;;;;;;;36.22;15.53;100838.95;1689635;83;21174;-68
2021/09/15 06:20:02;;;;;;;3.77;1.25;;;;;;;36.47;15.20;100835.12;1687616;83;21180;-67
2021/09/15 06:22:54;;;;;;;3.70;2.08;;;;;;;36.61;15.02;100847.47;1690125;83;21965;-67
2021/09/15 06:25:42;;;;;;;4.67;1.85;;;;;;;36.79;14.82;100842.55;1688030;83;21832;-64
2021/09/15 06:28:15;;;;;;;6.67;2.00;;;;;;;36.95;14.74;100844.79;1690810;83;21323;-66
2021/09/15 06:30:51;;;;;;;4.67;1.90;;;;;;;37.25;14.49;100850.87;1687029;84;22203;-66
2021/09/15 06:33:24;;;;;;;4.95;1.70;;;;;;;37.52;14.31;100852.36;1690331;83;21856;-70
2021/09/15 06:35:58;;;;;;;5.75;2.25;;;;;;;37.79;14.12;100849.65;1690370;84;21307;-66
2021/09/15 06:38:31;;;;;;;5.87;1.65;;;;;;;38.09;13.76;100854.58;1690752;83;21305;-69
2021/09/15 06:41:04;;;;;;;5.08;1.57;;;;;;;38.29;13.50;100857.45;1688702;83;21342;-68
2021/09/15 06:43:39;;;;;;;4.80;1.70;;;;;;;38.45;13.25;100851.94;1670796;84;21306;-68
2021/09/15 06:46:13;;;;;;;4.25;1.90;;;;;;;38.60;13.24;100850.79;1701316;83;21193;-66
2021/09/15 06:48:46;;;;;;;4.97;1.72;;;;;;;38.73;13.07;100848.59;1731117;81;21294;-70
2021/09/15 06:51:20;;;;;;;6.92;2.10;;;;;;;38.86;13.05;100850.48;1733056;81;21165;-67
2021/09/15 06:53:54;;;;;;;3.90;1.82;;;;;;;38.93;12.96;100850.28;1707215;82;21157;-67
2021/09/15 06:56:32;;;;;;;8.53;1.80;;;;;;;38.98;12.90;100850.16;1714030;83;21147;-69
2021/09/15 06:59:05;;;;;;;5.85;1.95;;;;;;;39.03;12.60;100849.23;1713803;81;21141;-72
2021/09/15 07:01:39;;;;;;;4.97;1.70;;;;;;;39.13;12.44;100856.39;1717836;81;21165;-69
2021/09/15 07:04:12;;;;;;;3.87;2.00;;;;;;;39.02;12.33;100847.63;1713320;81;21613;-71
2021/09/15 07:06:48;;;;;;;2.87;1.80;;;;;;;39.26;12.22;100855.55;1714734;81;21287;-68
2021/09/15 07:09:24;;;;;;;5.70;1.90;;;;;;;39.54;11.97;100858.38;1707055;81;21158;-68
2021/09/15 07:11:58;;;;;;;4.83;2.08;;;;;;;39.68;11.95;100855.83;1701690;82;21232;-72
2021/09/15 07:14:32;;;;;;;5.33;1.85;;;;;;;39.83;11.76;100854.61;1725137;81;21187;-69
2021/09/15 07:17:08;;;;;;;2.85;2.00;;;;;;;39.93;11.32;100856.27;1729441;81;22272;-69
2021/09/15 07:19:42;;;;;;;4.92;2.08;;;;;;;40.02;11.05;100852.45;1703193;82;21232;-70
2021/09/15 07:22:17;;;;;;;6.60;1.90;;;;;;;40.09;10.97;100852.80;1705641;82;21158;-69
2021/09/15 07:24:51;;;;;;;7.83;1.70;;;;;;;40.26;10.82;100851.48;1714214;81;21299;-70
2021/09/15 07:27:24;;;;;;;3.45;1.50;;;;;;;40.50;10.66;100853.00;1711019;81;21475;-66
2021/09/15 07:29:57;;;;;;;5.40;2.00;;;;;;;40.59;10.54;100847.76;1712286;81;21752;-68
2021/09/15 07:32:31;;;;;;;3.12;1.62;;;;;;;40.59;10.37;100846.95;1715551;81;22518;-71
2021/09/15 07:35:10;;;;;;;2.42;1.45;;;;;;;40.54;10.29;100856.14;1717780;81;21916;-72
2021/09/15 07:37:43;;;;;;;2.77;1.80;;;;;;;40.61;9.96;100858.41;1715070;81;21403;-70
2021/09/15 07:40:17;;;;;;;5.25;1.70;;;;;;;40.60;10.09;100854.88;1715874;81;21188;-72
2021/09/15 07:42:59;;;;;;;2.85;1.40;;;;;;;40.60;10.12;100860.92;1710364;81;21859;-67
2021/09/15 07:45:33;;;;;;;8.58;1.60;;;;;;;40.60;10.07;100853.50;1688432;83;21312;-67
2021/09/15 07:48:07;;;;;;;7.28;2.08;;;;;;;40.63;10.02;100856.17;1715660;82;21182;-68
2021/09/15 07:50:40;;;;;;;11.97;4.33;;;;;;;40.57;10.23;100854.70;1716076;83;21355;-66
2021/09/15 07:53:15;;;;;;;37.95;3.60;;;;;;;40.56;10.24;100861.30;1701569;82;21212;-68
2021/09/15 07:55:49;;;;;;;3.77;1.52;;;;;;;40.71;10.13;100857.54;1715949;82;21393;-65
2021/09/15 07:58:24;;;;;;;11.53;4.37;;;;;;;40.90;9.94;100859.98;1717369;82;22592;-68
2021/09/15 08:00:57;;;;;;;8.23;4.95;;;;;;;41.10;9.61;100855.78;1707435;82;21267;-69
2021/09/15 08:03:34;;;;;;;5.53;2.02;;;;;;;41.12;9.68;100854.33;1756698;79;21264;-65
2021/09/15 08:06:09;;;;;;;10.28;2.65;;;;;;;41.08;9.81;100852.55;1766472;79;21275;-68
2021/09/15 08:08:46;;;;;;;3.72;1.60;;;;;;;41.10;9.72;100854.41;1765216;79;21308;-67
2021/09/15 08:11:20;;;;;;;4.95;1.55;;;;;;;41.05;9.83;100851.83;1764019;79;21758;-70
2021/09/15 08:13:57;;;;;;;7.12;2.70;;;;;;;41.16;9.61;100848.97;1724466;81;21243;-66
2021/09/15 08:16:32;;;;;;;7.22;2.20;;;;;;;41.23;9.64;100850.09;1764099;81;21351;-69
2021/09/15 08:19:08;;;;;;;5.15;1.32;;;;;;;41.11;9.63;100845.02;1768740;79;21355;-65
2021/09/15 08:21:43;;;;;;;6.78;2.05;;;;;;;40.98;9.68;100844.90;1765699;79;21287;-69
2021/09/15 08:24:18;;;;;;;2.90;1.50;;;;;;;40.98;9.36;100838.59;1761021;79;21276;-72
2021/09/15 08:26:53;;;;;;;1.87;1.17;;;;;;;40.91;9.39;100844.55;1762415;79;21189;-67
2021/09/15 08:29:27;;;;;;;4.65;1.67;;;;;;;40.99;9.31;100844.30;1728974;81;21207;-67
2021/09/15 08:32:00;;;;;;;3.87;1.20;;;;;;;40.97;9.26;100835.03;1767532;79;21153;-67
2021/09/15 08:34:35;;;;;;;4.10;1.42;;;;;;;40.89;9.49;100836.42;1760913;79;21558;-65
2021/09/15 08:37:14;;;;;;;10.45;1.70;;;;;;;40.74;9.42;100823.95;1758981;79;21275;-69
2021/09/15 08:39:49;;;;;;;4.10;1.32;;;;;;;40.38;9.66;100830.83;1761009;79;21345;-67
2021/09/15 08:42:24;;;;;;;6.08;1.45;;;;;;;40.10;9.74;100824.23;1757832;79;22011;-68
2021/09/15 08:44:58;;;;;;;2.12;1.20;;;;;;;39.90;9.77;100829.47;1763420;79;21272;-70
2021/09/15 08:47:34;;;;;;;4.55;1.32;;;;;;;39.72;9.82;100827.21;1759260;79;21370;-68
2021/09/15 08:50:14;;;;;;;5.58;1.32;;;;;;;39.47;9.95;100827.33;1736316;80;21322;-70
2021/09/15 08:52:50;;;;;;;2.58;1.30;;;;;;;39.18;10.09;100826.98;1711130;82;21286;-70
2021/09/15 08:55:23;;;;;;;6.92;1.42;;;;;;;39.01;10.09;100809.84;1714102;83;21355;-69
2021/09/15 08:57:57;;;;;;;4.08;1.60;;;;;;;38.77;10.12;100818.92;1720871;83;21276;-69
2021/09/15 09:00:30;;;;;;;4.37;1.70;;;;;;;38.45;10.37;100813.63;1716646;83;21306;-68
2021/09/15 09:03:07;;;;;;;8.60;1.60;;;;;;;38.21;10.46;100813.03;1720319;83;22183;-72
2021/09/15 09:05:52;;;;;;;4.12;1.45;;;;;;;38.02;10.56;100820.55;1722549;83;21190;-71
2021/09/15 09:08:30;;;;;;;5.25;1.10;;;;;;;37.78;10.50;100813.30;1737263;80;21322;-69
2021/09/15 09:11:09;;;;;;;2.27;1.12;;;;;;;37.46;10.63;100821.58;1733596;82;21278;-67
2021/09/15 09:13:55;;;;;;;5.17;1.35;;;;;;;37.23;10.68;100817.05;1722726;83;21307;-68
2021/09/15 09:16:44;;;;;;;3.85;1.40;;;;;;;37.06;10.84;100822.25;1728627;82;21300;-70
2021/09/15 09:19:26;;;;;;;5.87;1.20;;;;;;;36.74;11.06;100818.07;1710691;82;22159;-69
2021/09/15 09:21:56;;;;;;;4.62;1.25;;;;;;;36.41;11.18;100818.52;1714705;83;21211;-70
2021/09/15 09:24:33;;;;;;;5.55;1.30;;;;;;;36.04;11.20;100813.02;1715943;83;21347;-68
2021/09/15 09:27:06;;;;;;;3.90;1.70;;;;;;;35.58;11.73;100818.12;1714352;83;21435;-68
2021/09/15 09:29:42;;;;;;;3.33;1.27;;;;;;;35.19;12.22;100821.71;1714738;83;21311;-68
2021/09/15 09:32:15;;;;;;;2.67;1.30;;;;;;;34.73;12.17;100823.10;1715788;82;21294;-70
2021/09/15 09:34:52;;;;;;;4.00;1.65;;;;;;;34.26;12.37;100818.71;1715888;83;21301;-67
2021/09/15 09:37:27;;;;;;;5.40;1.77;;;;;;;33.76;12.87;100822.39;1708764;83;21342;-66
2021/09/15 09:40:05;;;;;;;4.47;1.52;;;;;;;33.18;13.60;100821.88;1705453;83;21232;-68
2021/09/15 09:42:40;;;;;;;13.68;3.12;;;;;;;32.66;14.02;100825.84;1714564;83;22055;-67
2021/09/15 09:45:18;;;;;;;6.67;5.33;;;;;;;32.10;14.44;100831.02;1718044;83;21239;-71
2021/09/15 09:47:58;;;;;;;5.85;3.70;;;;;;;31.57;14.50;100835.30;1715446;83;21307;-69
2021/09/15 09:50:33;;;;;;;4.72;2.20;;;;;;;31.05;14.98;100830.50;1716629;81;21322;-68
2021/09/15 09:53:10;;;;;;;9.18;2.45;;;;;;;30.55;15.53;100831.30;1720893;81;21157;-70
2021/09/15 09:55:56;;;;;;;6.85;1.82;;;;;;;29.94;15.89;100833.23;1721981;83;21238;-69
2021/09/15 09:58:43;;;;;;;9.68;2.55;;;;;;;29.39;16.44;100826.14;1723671;81;21312;-67
2021/09/15 10:01:19;;;;;;;11.57;5.53;;;;;;;28.84;17.01;100837.57;1678120;83;21221;-70
2021/09/15 10:03:53;;;;;;;6.53;2.30;;;;;;;28.30;17.02;100835.40;1724227;81;21752;-67
2021/09/15 10:06:27;;;;;;;4.33;2.00;;;;;;;27.73;17.34;100829.80;1724898;81;21284;-71
2021/09/15 10:09:00;;;;;;;;;;;;;;;27.22;18.16;100830.45;1719953;83;22188;-71
2021/09/15 10:11:35;;;;;;;2.90;1.72;;;;;;;26.79;18.80;100827.68;1717229;81;20594;-71
2021/09/15 10:14:12;;;;;;;7.03;2.90;;;;;;;26.29;19.50;100829.74;1700698;81;21271;-70
2021/09/15 10:16:57;;;;;;;15.48;3.83;;;;;;;25.93;20.27;100827.33;1686563;83;21767;-69
2021/09/15 10:19:47;;;;;;;4.37;1.72;;;;;;;25.66;20.83;100822.42;1726485;81;21457;-69
2021/09/15 10:22:32;;;;;;;3.33;1.22;;;;;;;25.42;21.17;100828.06;1725624;81;21216;-68
2021/09/15 10:25:09;;;;;;;3.25;1.00;;;;;;;25.12;21.00;100817.70;1725696;81;21316;-69
2021/09/15 10:28:19;;;;;;;4.92;1.30;;;;;;;24.80;21.50;100815.52;1720962;81;21288;-67
2021/09/15 10:30:58;;;;;;;5.10;1.37;;;;;;;24.49;21.93;100822.97;1704367;82;21185;-69
2021/09/15 10:33:43;;;;;;;5.83;1.32;;;;;;;24.11;22.39;100816.73;1723946;82;21328;-67
2021/09/15 10:36:37;;;;;;;;;;;;;;;23.87;22.60;100814.70;1719343;81;21280;-68
2021/09/15 10:39:10;;;;;;;3.15;1.10;;;;;;;23.68;22.99;100808.86;1723370;83;20292;-68
2021/09/15 10:41:45;;;;;;;5.92;1.30;;;;;;;23.41;23.01;100798.20;1721458;82;21341;-69
2021/09/15 10:44:21;;;;;;;2.80;1.22;;;;;;;23.27;23.35;100797.03;1715437;81;21343;-68
2021/09/15 10:47:17;;;;;;;4.12;1.80;;;;;;;23.08;23.89;100797.33;1725673;81;21260;-67
2021/09/15 10:49:53;;;;;;;6.45;2.17;;;;;;;22.89;24.34;100807.47;1720271;82;21201;-69
2021/09/15 10:52:28;;;;;;;4.50;1.70;;;;;;;22.78;24.86;100807.54;1727654;81;21319;-66
2021/09/15 10:55:03;;;;;;;4.72;2.10;;;;;;;22.77;24.57;100805.09;1731713;81;21260;-67
2021/09/15 10:57:40;;;;;;;5.62;2.70;;;;;;;22.76;24.82;100800.75;1731040;81;21193;-66
2021/09/15 11:00:25;;;;;;;6.37;2.72;;;;;;;22.75;24.83;100805.80;1726197;81;21336;-67
2021/09/15 11:03:01;;;;;;;6.95;2.62;;;;;;;22.70;25.12;100803.73;1725620;81;21314;-66
2021/09/15 11:05:42;;;;;;;7.28;1.70;;;;;;;22.60;25.04;100796.59;1695980;81;21295;-67
2021/09/15 11:08:43;;;;;;;4.37;1.50;;;;;;;22.53;25.24;100796.25;1704233;82;21252;-70
2021/09/15 11:11:27;;;;;;;4.22;1.10;;;;;;;22.46;25.10;100808.25;1700065;82;22238;-66
2021/09/15 11:14:09;;;;;;;1.92;1.10;;;;;;;22.38;25.35;100801.73;1712255;83;21249;-64
2021/09/15 11:16:47;;;;;;;3.35;1.10;;;;;;;22.33;25.24;100803.37;1726415;81;21157;-65
2021/09/15 11:19:30;;;;;;;6.60;2.08;;;;;;;22.25;25.07;100799.03;1730556;81;21220;-65
2021/09/15 11:22:16;;;;;;;3.67;1.55;;;;;;;22.19;25.46;100792.34;1721495;81;21857;-69
2021/09/15 11:24:53;;;;;;;;;;;;;;;22.14;25.69;100799.58;1713507;82;21185;-66
2021/09/15 11:27:29;;;;;;;2.72;1.10;;;;;;;22.03;25.77;100794.31;1702895;81;20262;-66
2021/09/15 11:30:09;;;;;;;8.55;1.67;;;;;;;21.97;26.06;100792.41;1733641;81;21917;-66
2021/09/15 11:32:54;;;;;;;10.10;1.20;;;;;;;21.95;26.04;100791.79;1710631;82;21836;-65
2021/09/15 11:35:37;;;;;;;6.05;1.32;;;;;;;21.94;25.89;100784.00;1704375;82;21486;-67
2021/09/15 11:38:10;;;;;;;4.35;1.37;;;;;;;21.93;26.32;100783.67;1711906;82;21772;-69
2021/09/15 11:40:43;;;;;;;5.58;1.55;;;;;;;21.91;26.45;100783.05;1709857;82;21216;-68
2021/09/15 11:43:20;;;;;;;3.05;1.27;;;;;;;21.89;26.73;100774.44;1707141;82;21315;-67
2021/09/15 11:45:53;;;;;;;3.72;1.52;;;;;;;21.85;26.61;100781.98;1709697;82;21155;-67
2021/09/15 11:48:30;;;;;;;7.00;1.50;;;;;;;21.83;26.36;100784.00;1710669;82;21304;-71
2021/09/15 11:51:25;;;;;;;6.28;1.30;;;;;;;21.82;26.04;100781.54;1731674;81;21733;-68
2021/09/15 11:54:08;;;;;;;3.58;1.22;;;;;;;21.79;26.02;100781.42;1719102;81;21387;-65
2021/09/15 11:56:51;;;;;;;5.60;1.52;;;;;;;21.76;26.26;100774.31;1723960;81;21303;-69
2021/09/15 11:59:23;;;;;;;11.97;1.40;;;;;;;21.74;26.00;100773.69;1728205;81;21280;-69
2021/09/15 12:01:58;;;;;;;7.55;1.45;;;;;;;21.72;26.17;100773.06;1717825;81;21434;-66
2021/09/15 12:04:33;;;;;;;3.17;1.20;;;;;;;21.71;26.46;100780.77;1727465;81;21368;-67
2021/09/15 12:07:09;;;;;;;6.42;1.20;;;;;;;21.71;25.79;100770.11;1713234;81;21205;-67
2021/09/15 12:09:43;;;;;;;2.55;0.98;;;;;;;21.69;25.63;100765.45;1724241;81;22156;-68
2021/09/15 12:12:19;;;;;;;2.98;1.02;;;;;;;21.65;25.64;100758.38;1673502;83;21165;-69
2021/09/15 12:14:58;;;;;;;3.98;1.27;;;;;;;21.61;25.96;100761.63;1725572;81;22344;-68